createdAt,value
2022-12-26T00:00:57.699Z,100943.63
2022-12-26T00:02:02.782Z,100990.38
2022-12-26T00:03:06.097Z,100938.31
2022-12-26T00:04:51.273Z,100984.94
2022-12-26T00:05:30.166Z,100923.66
2022-12-26T00:06:32.636Z,100983.88
2022-12-26T00:07:34.512Z,100871.41
2022-12-26T00:08:36.307Z,100964.91
2022-12-26T00:09:38.233Z,100936.63
2022-12-26T00:10:40.543Z,100927.41
2022-12-26T00:11:42.398Z,100933.09
2022-12-26T00:12:47.617Z,100924.31
2022-12-26T00:13:58.295Z,100962.84
2022-12-26T00:15:00.102Z,100959.44
2022-12-26T00:16:07.496Z,100944.63
2022-12-26T00:17:09.407Z,100972.50
2022-12-26T00:18:11.350Z,100968.03
2022-12-26T00:19:13.421Z,100914.97
2022-12-26T00:20:15.319Z,100926.47
2022-12-26T00:21:18.230Z,100950.06
2022-12-26T00:22:20.131Z,100974.81
2022-12-26T00:23:21.962Z,100990.38
2022-12-26T00:24:23.786Z,100939.38
2022-12-26T00:25:25.714Z,100905.41
2022-12-26T00:26:30.321Z,100953.34
2022-12-26T00:27:33.139Z,100857.03
2022-12-26T00:28:35.903Z,100808.22
2022-12-26T00:29:37.743Z,100931.31
2022-12-26T00:30:39.524Z,100830.91
2022-12-26T00:31:41.426Z,100963.72
2022-12-26T00:32:43.417Z,100940.75
2022-12-26T00:33:45.850Z,100888.59
2022-12-26T00:34:47.833Z,100899.63
2022-12-26T00:35:49.660Z,100914.16
2022-12-26T00:36:51.498Z,100840.09
2022-12-26T00:37:53.285Z,100795.50
2022-12-26T00:38:57.170Z,100961.97
2022-12-26T00:39:59.012Z,100925.78
2022-12-26T00:41:01.223Z,100928.44
2022-12-26T00:42:03.021Z,100870.06
2022-12-26T00:43:04.835Z,100962.84
2022-12-26T00:44:06.721Z,100837.44
2022-12-26T00:45:08.864Z,100958.00
2022-12-26T00:46:11.305Z,100919.72
2022-12-26T00:47:13.198Z,100731.44
2022-12-26T00:48:15.098Z,100940.56
2022-12-26T00:49:16.906Z,100931.34
2022-12-26T00:50:18.711Z,100955.59
2022-12-26T00:51:20.748Z,100902.31
2022-12-26T00:52:22.646Z,100899.03
2022-12-26T00:53:26.175Z,100870.88
2022-12-26T00:54:28.204Z,100927.72
2022-12-26T00:55:30.085Z,100839.38
2022-12-26T00:56:31.887Z,100864.06
2022-12-26T00:57:33.717Z,100931.34
2022-12-26T00:58:36.046Z,100896.25
2022-12-26T00:59:37.833Z,100812.84
2022-12-26T01:00:40.286Z,100900.19
2022-12-26T01:01:42.240Z,100942.25
2022-12-26T01:02:44.473Z,100928.47
2022-12-26T01:03:47.562Z,100868.97
2022-12-26T01:04:49.391Z,100944.84
2022-12-26T01:05:51.926Z,100908.38
2022-12-26T01:06:54.024Z,100937.34
2022-12-26T01:08:22.722Z,100909.38
2022-12-26T01:09:18.007Z,100944.50
2022-12-26T01:10:20.272Z,100826.84
2022-12-26T01:11:40.508Z,100889.69
2022-12-26T01:12:42.838Z,100846.81
2022-12-26T01:13:44.924Z,100901.41
2022-12-26T01:14:47.134Z,100858.94
2022-12-26T01:15:51.056Z,100915.91
2022-12-26T01:16:52.972Z,100906.03
2022-12-26T01:17:55.162Z,100892.84
2022-12-26T01:18:56.957Z,100791.06
2022-12-26T01:19:58.838Z,100939.44
2022-12-26T01:21:11.109Z,100891.97
2022-12-26T01:22:12.982Z,100836.88
2022-12-26T01:23:15.887Z,100892.25
2022-12-26T01:24:17.707Z,100847.34
2022-12-26T01:25:19.588Z,100877.34
2022-12-26T01:26:21.588Z,100880.28
2022-12-26T01:27:25.696Z,100926.00
2022-12-26T01:28:27.571Z,100778.25
2022-12-26T01:29:29.416Z,100909.41
2022-12-26T01:30:31.280Z,100890.56
2022-12-26T01:31:33.361Z,100872.66
2022-12-26T01:32:35.212Z,100847.03
2022-12-26T01:33:37.108Z,100870.25
2022-12-26T01:34:39.022Z,100912.63
2022-12-26T01:35:50.301Z,100907.31
2022-12-26T01:36:53.386Z,100860.97
2022-12-26T01:37:56.547Z,100906.22
2022-12-26T01:38:58.563Z,100863.25
2022-12-26T01:40:00.456Z,100878.38
2022-12-26T01:41:17.868Z,100862.44
2022-12-26T01:42:24.786Z,100869.78
2022-12-26T01:43:26.618Z,100905.97
2022-12-26T01:45:22.809Z,100904.06
2022-12-26T01:46:27.566Z,100879.63
2022-12-26T01:47:51.576Z,100861.16
2022-12-26T01:48:55.077Z,100859.47
2022-12-26T01:49:56.951Z,100835.88
2022-12-26T01:51:05.941Z,100864.16
2022-12-26T01:52:12.693Z,100723.16
2022-12-26T01:53:36.703Z,100887.03
2022-12-26T01:54:43.811Z,100865.50
2022-12-26T01:55:54.560Z,100754.25
2022-12-26T01:56:57.201Z,100821.72
2022-12-26T01:58:07.148Z,100833.81
2022-12-26T01:59:15.046Z,100877.50
2022-12-26T02:00:17.214Z,100835.16
2022-12-26T02:01:20.677Z,100829.22
2022-12-26T02:02:27.255Z,100877.84
2022-12-26T02:03:47.491Z,100810.59
2022-12-26T02:05:10.509Z,100844.25
2022-12-26T02:06:14.489Z,100842.91
2022-12-26T02:07:16.622Z,100834.94
2022-12-26T02:08:24.328Z,100866.97
2022-12-26T02:09:26.569Z,100797.06
2022-12-26T02:10:31.756Z,100823.44
2022-12-26T02:11:45.240Z,100823.66
2022-12-26T02:12:48.531Z,100821.88
2022-12-26T02:13:50.568Z,100582.59
2022-12-26T02:14:52.376Z,100809.06
2022-12-26T02:15:54.295Z,100806.19
2022-12-26T02:16:56.449Z,100837.59
2022-12-26T02:17:58.421Z,100814.47
2022-12-26T02:19:00.245Z,100846.44
2022-12-26T02:20:16.240Z,100824.06
2022-12-26T02:21:18.032Z,100853.44
2022-12-26T02:22:28.652Z,100850.06
2022-12-26T02:23:48.450Z,100845.97
2022-12-26T02:25:05.378Z,100811.25
2022-12-26T02:26:07.156Z,100845.97
2022-12-26T02:27:31.840Z,100838.72
2022-12-26T02:28:54.908Z,100828.31
2022-12-26T02:30:23.919Z,100834.00
2022-12-26T02:31:37.136Z,100830.50
2022-12-26T02:32:56.926Z,100825.31
2022-12-26T02:34:23.161Z,100828.94
2022-12-26T02:35:56.555Z,100819.75
2022-12-26T02:37:20.765Z,100821.56
2022-12-26T02:38:56.531Z,100815.28
2022-12-26T02:40:42.899Z,100793.19
2022-12-26T02:42:02.756Z,100817.69
2022-12-26T02:43:17.419Z,100781.22
2022-12-26T02:44:44.231Z,100808.50
2022-12-26T02:46:22.630Z,100787.25
2022-12-26T02:47:45.516Z,100789.66
2022-12-26T02:49:06.671Z,100769.38
2022-12-26T02:50:32.841Z,100774.44
2022-12-26T02:52:08.307Z,100802.72
2022-12-26T02:53:37.368Z,100771.53
2022-12-26T02:55:11.034Z,100772.63
2022-12-26T02:56:40.433Z,100801.88
2022-12-26T02:58:08.746Z,100797.53
2022-12-26T02:59:55.716Z,100797.53
2022-12-26T03:01:22.672Z,100766.09
2022-12-26T03:02:55.734Z,100761.88
2022-12-26T03:04:21.246Z,100761.03
2022-12-26T03:05:58.693Z,100761.63
2022-12-26T03:07:22.477Z,100792.06
2022-12-26T03:08:50.819Z,100765.25
2022-12-26T03:10:12.734Z,100742.44
2022-12-26T03:11:33.546Z,100729.38
2022-12-26T03:13:09.819Z,100682.75
2022-12-26T03:14:19.514Z,100757.06
2022-12-26T03:15:24.420Z,100730.97
2022-12-26T03:16:45.116Z,100748.94
2022-12-26T03:18:04.254Z,100754.63
2022-12-26T03:19:10.116Z,100680.81
2022-12-26T03:20:15.785Z,100700.91
2022-12-26T03:21:24.341Z,100603.94
2022-12-26T03:22:40.979Z,100727.34
2022-12-26T03:23:46.746Z,100775.78
2022-12-26T03:25:08.059Z,100667.31
2022-12-26T03:26:33.802Z,100738.69
2022-12-26T03:27:35.726Z,100737.13
2022-12-26T03:28:38.066Z,100682.66
2022-12-26T03:29:58.173Z,100743.88
2022-12-26T03:31:04.463Z,100735.06
2022-12-26T03:32:10.446Z,100755.97
2022-12-26T03:33:31.053Z,100589.69
2022-12-26T03:34:35.176Z,100730.50
2022-12-26T03:35:37.097Z,100728.56
2022-12-26T03:36:52.373Z,100709.72
2022-12-26T03:38:07.871Z,100731.44
2022-12-26T03:39:52.896Z,100750.16
2022-12-26T03:41:24.100Z,100725.41
2022-12-26T03:42:53.461Z,100751.25
2022-12-26T03:44:22.493Z,100751.34
2022-12-26T03:45:54.933Z,100743.38
2022-12-26T03:47:30.790Z,100736.00
2022-12-26T03:49:02.598Z,100744.97
2022-12-26T03:50:34.735Z,100715.00
2022-12-26T03:52:31.636Z,100741.19
2022-12-26T03:54:21.876Z,100716.31
2022-12-26T03:55:51.403Z,100713.66
2022-12-26T03:57:24.495Z,100705.72
2022-12-26T03:58:53.521Z,100706.69
2022-12-26T04:00:43.218Z,100707.75
2022-12-26T04:02:06.117Z,100691.56
2022-12-26T04:03:31.997Z,100731.53
2022-12-26T04:04:55.988Z,100735.16
2022-12-26T04:06:20.101Z,100707.41
2022-12-26T04:07:56.444Z,100697.84
2022-12-26T04:09:26.621Z,100717.41
2022-12-26T04:10:54.284Z,100646.22
2022-12-26T04:12:18.183Z,100718.38
2022-12-26T04:14:03.354Z,100707.38
2022-12-26T04:15:37.419Z,100690.09
2022-12-26T04:17:07.960Z,100684.22
2022-12-26T04:18:40.382Z,100686.72
2022-12-26T04:20:10.364Z,100694.34
2022-12-26T04:21:53.214Z,100713.31
2022-12-26T04:23:40.436Z,100652.19
2022-12-26T04:25:10.479Z,100696.25
2022-12-26T04:26:40.320Z,100671.16
2022-12-26T04:28:01.399Z,100630.59
2022-12-26T04:29:22.379Z,100618.16
2022-12-26T04:30:43.056Z,100672.25
2022-12-26T04:32:25.956Z,100710.78
2022-12-26T04:33:53.983Z,100704.47
2022-12-26T04:35:32.800Z,100676.34
2022-12-26T04:37:01.200Z,100681.41
2022-12-26T04:38:23.759Z,100671.03
2022-12-26T04:39:48.668Z,100678.50
2022-12-26T04:41:15.594Z,100650.16
2022-12-26T04:42:38.177Z,100700.84
2022-12-26T04:43:59.357Z,100658.44
2022-12-26T04:45:02.619Z,100584.13
2022-12-26T04:46:05.750Z,100637.47
2022-12-26T04:47:07.993Z,100493.22
2022-12-26T04:48:30.567Z,100697.84
2022-12-26T04:50:03.961Z,100690.47
2022-12-26T04:51:05.956Z,100657.84
2022-12-26T04:52:11.467Z,100650.72
2022-12-26T04:53:15.184Z,100637.59
2022-12-26T04:54:18.117Z,100637.69
2022-12-26T04:55:19.997Z,100637.59
2022-12-26T04:56:21.918Z,100618.75
2022-12-26T04:57:23.738Z,100665.81
2022-12-26T04:58:26.728Z,100645.06
2022-12-26T04:59:28.832Z,100643.94
2022-12-26T05:00:30.658Z,100591.72
2022-12-26T05:01:51.373Z,100616.56
2022-12-26T05:03:18.235Z,100656.50
2022-12-26T05:04:39.651Z,100600.00
2022-12-26T05:06:03.077Z,100663.97
2022-12-26T05:07:30.188Z,100663.97
2022-12-26T05:08:57.310Z,100665.41
2022-12-26T05:09:59.201Z,100577.56
2022-12-26T05:11:01.044Z,100610.16
2022-12-26T05:12:05.559Z,100638.00
2022-12-26T05:13:07.377Z,100627.03
2022-12-26T05:14:09.307Z,100640.94
2022-12-26T05:15:11.663Z,100514.03
2022-12-26T05:16:31.813Z,100654.69
2022-12-26T05:17:52.095Z,100606.97
2022-12-26T05:19:12.614Z,100629.69
2022-12-26T05:20:33.215Z,100620.97
2022-12-26T05:21:53.709Z,100632.84
2022-12-26T05:23:14.385Z,100628.94
2022-12-26T05:24:34.632Z,100636.88
2022-12-26T05:25:58.175Z,100602.38
2022-12-26T05:27:18.535Z,100619.03
2022-12-26T05:28:38.956Z,100605.03
2022-12-26T05:29:41.096Z,100569.31
2022-12-26T05:30:42.965Z,100575.22
2022-12-26T05:31:45.136Z,100612.88
2022-12-26T05:33:06.584Z,100585.25
2022-12-26T05:34:10.527Z,100593.44
2022-12-26T05:35:12.473Z,100599.00
2022-12-26T05:36:16.408Z,100508.19
2022-12-26T05:37:18.338Z,100478.66
2022-12-26T05:38:20.496Z,100538.69
2022-12-26T05:39:23.252Z,100549.53
2022-12-26T05:40:25.096Z,100518.44
2022-12-26T05:41:27.008Z,100549.28
2022-12-26T05:42:29.055Z,100573.88
2022-12-26T05:43:30.964Z,100594.41
2022-12-26T05:44:32.877Z,100582.81
2022-12-26T05:45:34.686Z,100505.16
2022-12-26T05:46:37.239Z,100546.16
2022-12-26T05:47:39.116Z,100568.22
2022-12-26T05:48:41.298Z,100621.88
2022-12-26T05:49:43.179Z,100458.63
2022-12-26T05:50:44.984Z,100599.25
2022-12-26T05:51:46.867Z,100612.94
2022-12-26T05:52:48.673Z,100554.69
2022-12-26T05:53:51.746Z,100597.75
2022-12-26T05:54:53.824Z,100539.63
2022-12-26T05:55:56.309Z,100578.56
2022-12-26T05:56:58.338Z,100446.94
2022-12-26T05:58:00.986Z,100545.38
2022-12-26T05:59:02.822Z,100456.91
2022-12-26T06:00:05.239Z,100528.47
2022-12-26T06:01:11.300Z,100574.91
2022-12-26T06:02:13.307Z,100497.16
2022-12-26T06:03:15.374Z,100562.84
2022-12-26T06:04:17.337Z,100558.59
2022-12-26T06:05:19.791Z,100475.94
2022-12-26T06:06:23.163Z,100589.25
2022-12-26T06:07:25.010Z,100564.66
2022-12-26T06:08:27.016Z,100569.59
2022-12-26T06:09:28.946Z,100539.19
2022-12-26T06:10:30.710Z,100518.56
2022-12-26T06:11:32.735Z,100571.88
2022-12-26T06:12:35.553Z,100602.03
2022-12-26T06:13:38.417Z,100578.81
2022-12-26T06:14:40.218Z,100568.75
2022-12-26T06:15:42.232Z,100554.84
2022-12-26T06:16:44.107Z,100582.16
2022-12-26T06:17:46.105Z,100585.81
2022-12-26T06:18:48.811Z,100552.22
2022-12-26T06:19:50.651Z,100578.00
2022-12-26T06:20:52.762Z,100560.88
2022-12-26T06:21:54.631Z,100599.41
2022-12-26T06:22:56.493Z,100568.47
2022-12-26T06:23:58.441Z,100603.13
2022-12-26T06:25:00.499Z,100529.47
2022-12-26T06:26:02.331Z,100562.94
2022-12-26T06:27:04.170Z,100547.09
2022-12-26T06:28:06.054Z,100535.09
2022-12-26T06:29:07.903Z,100559.94
2022-12-26T06:30:10.185Z,100519.22
2022-12-26T06:31:18.413Z,100565.59
2022-12-26T06:32:20.284Z,100528.47
2022-12-26T06:33:22.388Z,100552.59
2022-12-26T06:34:24.399Z,100553.31
2022-12-26T06:35:26.344Z,100559.78
2022-12-26T06:36:29.246Z,100601.47
2022-12-26T06:37:33.498Z,100601.91
2022-12-26T06:38:35.938Z,100495.09
2022-12-26T06:39:37.914Z,100565.91
2022-12-26T06:40:43.225Z,100599.84
2022-12-26T06:41:45.525Z,100544.84
2022-12-26T06:42:47.397Z,100554.22
2022-12-26T06:43:49.890Z,100543.41
2022-12-26T06:44:51.882Z,100560.00
2022-12-26T06:45:58.854Z,100497.47
2022-12-26T06:47:00.795Z,100436.97
2022-12-26T06:48:02.761Z,100549.47
2022-12-26T06:49:06.611Z,100493.00
2022-12-26T06:50:08.890Z,100523.53
2022-12-26T06:51:23.539Z,100591.38
2022-12-26T06:52:25.412Z,100573.56
2022-12-26T06:53:27.180Z,100501.91
2022-12-26T06:54:29.223Z,100573.13
2022-12-26T06:55:31.122Z,100576.38
2022-12-26T06:56:34.398Z,100531.72
2022-12-26T06:57:36.267Z,100587.63
2022-12-26T06:58:38.697Z,100544.63
2022-12-26T06:59:40.524Z,100556.03
2022-12-26T07:00:42.365Z,100574.13
2022-12-26T07:01:44.377Z,100562.63
2022-12-26T07:02:49.786Z,100595.91
2022-12-26T07:03:53.306Z,100547.75
2022-12-26T07:04:55.128Z,100566.16
2022-12-26T07:05:56.969Z,100579.75
2022-12-26T07:06:58.908Z,100613.75
2022-12-26T07:08:00.753Z,100535.50
2022-12-26T07:09:08.554Z,100601.13
2022-12-26T07:10:10.699Z,100571.75
2022-12-26T07:11:17.605Z,100567.38
2022-12-26T07:12:21.858Z,100449.50
2022-12-26T07:13:23.785Z,100450.75
2022-12-26T07:14:31.889Z,100507.19
2022-12-26T07:15:33.689Z,100605.78
2022-12-26T07:16:37.556Z,100592.84
2022-12-26T07:17:39.639Z,100597.50
2022-12-26T07:18:41.831Z,100604.53
2022-12-26T07:19:43.592Z,100605.34
2022-12-26T07:20:45.625Z,100610.69
2022-12-26T07:21:47.521Z,100608.88
2022-12-26T07:22:49.285Z,100609.97
2022-12-26T07:23:51.898Z,100608.72
2022-12-26T07:24:53.701Z,100608.88
2022-12-26T07:25:55.469Z,100596.94
2022-12-26T07:26:57.324Z,100584.16
2022-12-26T07:28:00.522Z,100605.06
2022-12-26T07:29:02.303Z,100605.06
2022-12-26T07:30:04.391Z,100606.75
2022-12-26T07:31:06.316Z,100591.03
2022-12-26T07:32:08.165Z,100580.91
2022-12-26T07:33:09.962Z,100589.34
2022-12-26T07:34:11.842Z,100592.41
2022-12-26T07:35:13.712Z,100592.41
2022-12-26T07:36:16.413Z,100593.28
2022-12-26T07:37:18.224Z,100594.09
2022-12-26T07:38:20.041Z,100596.78
2022-12-26T07:39:21.918Z,100588.75
2022-12-26T07:40:23.695Z,100577.97
2022-12-26T07:41:44.087Z,100593.81
2022-12-26T07:42:46.593Z,100571.06
2022-12-26T07:43:48.353Z,100582.03
2022-12-26T07:44:50.135Z,100582.16
2022-12-26T07:45:52.166Z,100579.47
2022-12-26T07:46:55.378Z,100579.47
2022-12-26T07:47:58.123Z,100565.72
2022-12-26T07:48:59.929Z,100575.81
2022-12-26T07:50:01.783Z,100584.00
2022-12-26T07:51:03.646Z,100566.88
2022-12-26T07:52:05.538Z,100574.16
2022-12-26T07:53:07.339Z,100564.22
2022-12-26T07:54:11.671Z,100575.13
2022-12-26T07:55:13.959Z,100581.16
2022-12-26T07:56:16.352Z,100574.16
2022-12-26T07:58:40.065Z,100572.22
2022-12-26T07:59:41.832Z,100586.25
2022-12-26T08:00:43.648Z,100578.38
2022-12-26T08:01:45.611Z,100567.41
2022-12-26T08:02:49.672Z,100581.16
2022-12-26T08:03:52.499Z,100578.66
2022-12-26T08:04:54.315Z,100593.56
2022-12-26T08:05:56.776Z,100577.97
2022-12-26T08:06:58.640Z,100577.81
2022-12-26T08:08:00.413Z,100570.78
2022-12-26T08:09:02.342Z,100573.72
2022-12-26T08:10:04.390Z,100565.72
2022-12-26T08:11:08.505Z,100582.03
2022-12-26T08:12:11.100Z,100579.22
2022-12-26T08:13:12.908Z,100573.03
2022-12-26T08:14:16.866Z,100558.44
2022-12-26T08:15:18.810Z,100581.75
2022-12-26T08:16:20.989Z,100571.34
2022-12-26T08:17:22.815Z,100570.25
2022-12-26T08:18:25.128Z,100571.34
2022-12-26T08:19:26.894Z,100577.25
2022-12-26T08:20:28.694Z,100574.59
2022-12-26T08:21:30.900Z,100528.13
2022-12-26T08:22:32.671Z,100564.47
2022-12-26T08:23:34.481Z,100576.28
2022-12-26T08:24:36.421Z,100568.25
2022-12-26T08:25:38.339Z,100560.97
2022-12-26T08:26:40.172Z,100559.81
2022-12-26T08:27:42.043Z,100573.59
2022-12-26T08:28:43.995Z,100569.94
2022-12-26T08:29:47.574Z,100570.94
2022-12-26T08:30:50.174Z,100570.78
2022-12-26T08:31:52.045Z,100562.06
2022-12-26T08:32:53.882Z,100567.97
2022-12-26T08:33:57.665Z,100571.63
2022-12-26T08:34:59.572Z,100563.47
2022-12-26T08:36:07.511Z,100560.97
2022-12-26T08:37:09.320Z,100569.50
2022-12-26T08:38:11.124Z,100569.66
2022-12-26T08:39:12.880Z,100567.97
2022-12-26T08:40:15.609Z,100565.16
2022-12-26T08:41:20.696Z,100572.16
2022-12-26T08:42:22.541Z,100566.84
2022-12-26T08:43:58.449Z,100563.34
2022-12-26T08:44:47.011Z,100525.84
2022-12-26T08:45:59.640Z,100550.00
2022-12-26T08:47:01.698Z,100561.06
2022-12-26T08:48:04.361Z,100543.94
2022-12-26T08:49:06.237Z,100555.03
2022-12-26T08:50:08.337Z,100550.81
2022-12-26T08:51:14.206Z,100556.16
2022-12-26T08:52:15.963Z,100543.09
2022-12-26T08:53:17.746Z,100551.50
2022-12-26T08:54:19.634Z,100521.34
2022-12-26T08:55:21.442Z,100553.34
2022-12-26T08:56:27.390Z,100546.34
2022-12-26T08:57:30.134Z,100542.50
2022-12-26T08:58:32.464Z,100541.00
2022-12-26T08:59:34.308Z,100541.97
2022-12-26T09:00:36.120Z,100543.50
2022-12-26T09:01:38.873Z,100528.06
2022-12-26T09:02:41.002Z,100548.00
2022-12-26T09:03:44.506Z,100540.00
2022-12-26T09:04:46.283Z,100532.41
2022-12-26T09:05:48.276Z,100527.09
2022-12-26T09:06:50.115Z,100519.34
2022-12-26T09:07:51.895Z,100532.00
2022-12-26T09:08:54.160Z,100526.94
2022-12-26T09:09:56.073Z,100527.34
2022-12-26T09:11:27.679Z,100521.28
2022-12-26T09:12:29.487Z,100526.59
2022-12-26T09:13:32.289Z,100527.75
2022-12-26T09:14:34.204Z,100531.41
2022-12-26T09:15:37.572Z,100518.09
2022-12-26T09:16:49.242Z,100520.03
2022-12-26T09:17:51.738Z,100518.91
2022-12-26T09:18:56.264Z,100524.41
2022-12-26T09:19:58.071Z,100514.13
2022-12-26T09:21:01.377Z,100519.34
2022-12-26T09:22:21.552Z,100519.34
2022-12-26T09:23:23.340Z,100524.09
2022-12-26T09:24:25.109Z,100520.16
2022-12-26T09:25:27.056Z,100518.66
2022-12-26T09:26:29.528Z,100523.53
2022-12-26T09:27:31.325Z,100517.09
2022-12-26T09:28:34.396Z,100522.72
2022-12-26T09:29:38.310Z,100506.28
2022-12-26T09:30:40.112Z,100510.34
2022-12-26T09:31:42.303Z,100517.22
2022-12-26T09:32:44.113Z,100519.06
2022-12-26T09:33:47.302Z,100517.22
2022-12-26T09:34:49.594Z,100515.41
2022-12-26T09:35:51.374Z,100514.53
2022-12-26T09:36:53.186Z,100509.19
2022-12-26T09:37:54.945Z,100505.00
2022-12-26T09:38:57.949Z,100513.72
2022-12-26T09:40:00.195Z,100509.19
2022-12-26T09:41:02.655Z,100505.53
2022-12-26T09:42:30.310Z,100504.72
2022-12-26T09:43:49.776Z,100502.16
2022-12-26T09:45:09.014Z,100495.53
2022-12-26T09:46:32.924Z,100506.91
2022-12-26T09:47:40.470Z,100496.53
2022-12-26T09:48:56.648Z,100500.19
2022-12-26T09:50:10.351Z,100496.81
2022-12-26T09:51:12.329Z,100492.16
2022-12-26T09:52:22.316Z,100486.56
2022-12-26T09:53:37.231Z,100495.00
2022-12-26T09:54:54.369Z,100494.16
2022-12-26T09:56:03.767Z,100494.00
2022-12-26T09:57:15.039Z,100491.78
2022-12-26T09:58:44.316Z,100493.84
2022-12-26T10:00:01.441Z,100498.78
2022-12-26T10:01:07.335Z,100496.22
2022-12-26T10:02:18.454Z,100489.50
2022-12-26T10:03:22.133Z,100490.50
2022-12-26T10:04:30.251Z,100487.28
2022-12-26T10:05:41.779Z,100477.72
2022-12-26T10:06:52.497Z,100483.88
2022-12-26T10:08:02.332Z,100484.44
2022-12-26T10:09:23.183Z,100465.66
2022-12-26T10:10:54.954Z,100486.09
2022-12-26T10:12:14.989Z,100485.94
2022-12-26T10:13:40.247Z,100485.13
2022-12-26T10:15:03.559Z,100488.47
2022-12-26T10:16:13.985Z,100482.56
2022-12-26T10:17:45.040Z,100481.28
2022-12-26T10:18:49.356Z,100484.25
2022-12-26T10:20:18.103Z,100483.56
2022-12-26T10:21:52.450Z,100478.63
2022-12-26T10:23:06.193Z,100489.31
2022-12-26T10:24:17.346Z,100482.44
2022-12-26T10:25:28.808Z,100476.53
2022-12-26T10:26:39.778Z,100468.13
2022-12-26T10:27:44.095Z,100472.66
2022-12-26T10:28:48.256Z,100478.53
2022-12-26T10:29:57.815Z,100467.88
2022-12-26T10:31:04.424Z,100468.44
2022-12-26T10:32:08.277Z,100478.53
2022-12-26T10:33:18.437Z,100465.16
2022-12-26T10:34:26.279Z,100469.53
2022-12-26T10:35:33.665Z,100470.38
2022-12-26T10:36:48.648Z,100466.56
2022-12-26T10:37:53.737Z,100464.88
2022-12-26T10:38:59.179Z,100458.53
2022-12-26T10:40:15.594Z,100454.88
2022-12-26T10:41:26.995Z,100459.22
2022-12-26T10:42:36.676Z,100456.56
2022-12-26T10:43:41.102Z,100458.53
2022-12-26T10:44:43.309Z,100459.22
2022-12-26T10:46:29.284Z,100456.69
2022-12-26T10:47:37.846Z,100455.97
2022-12-26T10:48:39.856Z,100457.81
2022-12-26T10:49:45.031Z,100457.41
2022-12-26T10:50:49.189Z,100448.16
2022-12-26T10:51:54.281Z,100455.19
2022-12-26T10:52:57.670Z,100461.91
2022-12-26T10:53:59.541Z,100455.19
2022-12-26T10:55:27.283Z,100465.56
2022-12-26T10:56:25.699Z,100457.94
2022-12-26T10:57:30.754Z,100438.47
2022-12-26T10:58:37.752Z,100450.41
2022-12-26T10:59:43.953Z,100444.91
2022-12-26T11:00:46.155Z,100448.25
2022-12-26T11:01:49.169Z,100444.19
2022-12-26T11:03:05.679Z,100449.94
2022-12-26T11:04:31.206Z,100452.47
2022-12-26T11:07:10.043Z,100443.03
2022-12-26T11:08:23.437Z,100438.00
2022-12-26T11:09:32.299Z,100431.66
2022-12-26T11:10:36.041Z,100442.47
2022-12-26T11:11:46.805Z,100421.16
2022-12-26T11:12:53.203Z,100434.91
2022-12-26T11:14:02.533Z,100439.13
2022-12-26T11:15:17.326Z,100433.78
2022-12-26T11:16:48.869Z,100433.03
2022-12-26T11:17:53.352Z,100427.00
2022-12-26T11:18:56.225Z,100436.03
2022-12-26T11:20:12.245Z,100427.00
2022-12-26T11:21:14.241Z,100434.34
2022-12-26T11:22:25.476Z,100439.81
2022-12-26T11:23:31.761Z,100425.63
2022-12-26T11:24:33.560Z,100423.53
2022-12-26T11:25:48.936Z,100430.13
2022-12-26T11:26:50.767Z,100432.66
2022-12-26T11:27:55.556Z,100436.31
2022-12-26T11:29:12.670Z,100436.03
2022-12-26T11:30:14.527Z,100436.84
2022-12-26T11:31:28.202Z,100431.66
2022-12-26T11:32:30.119Z,100393.38
2022-12-26T11:33:43.297Z,100432.66
2022-12-26T11:34:48.139Z,100427.16
2022-12-26T11:36:14.317Z,100430.38
2022-12-26T11:37:44.729Z,100418.22
2022-12-26T11:38:51.379Z,100421.91
2022-12-26T11:39:54.629Z,100417.72
2022-12-26T11:41:15.108Z,100413.25
2022-12-26T11:42:22.306Z,100406.47
2022-12-26T11:43:24.714Z,100414.66
2022-12-26T11:44:32.248Z,100416.31
2022-12-26T11:45:49.407Z,100409.31
2022-12-26T11:47:00.264Z,100410.69
2022-12-26T11:48:02.339Z,100407.31
2022-12-26T11:49:05.238Z,100403.81
2022-12-26T11:50:12.070Z,100389.19
2022-12-26T11:51:14.986Z,100388.75
2022-12-26T11:52:41.607Z,100393.66
2022-12-26T11:53:43.433Z,100392.69
2022-12-26T11:54:50.822Z,100392.97
2022-12-26T11:56:01.652Z,100378.38
2022-12-26T11:57:10.046Z,100386.66
2022-12-26T11:58:21.714Z,100378.63
2022-12-26T11:59:23.899Z,100377.25
2022-12-26T12:00:26.417Z,100376.56
2022-12-26T12:01:28.268Z,100385.97
2022-12-26T12:02:32.220Z,100383.28
2022-12-26T12:03:50.327Z,100379.63
2022-12-26T12:04:57.041Z,100373.59
2022-12-26T12:06:01.768Z,100382.97
2022-12-26T12:07:15.125Z,100384.97
2022-12-26T12:08:22.721Z,100386.34
2022-12-26T12:09:27.421Z,100382.81
2022-12-26T12:10:53.350Z,100384.34
2022-12-26T12:12:22.793Z,100381.09
2022-12-26T12:13:27.231Z,100380.41
2022-12-26T12:15:00.315Z,100373.50
2022-12-26T12:16:36.200Z,100381.78
2022-12-26T12:18:00.931Z,100380.22
2022-12-26T12:19:26.945Z,100363.19
2022-12-26T12:20:40.705Z,100365.88
2022-12-26T12:22:10.207Z,100349.94
2022-12-26T12:23:26.699Z,100362.50
2022-12-26T12:24:28.433Z,100362.50
2022-12-26T12:25:58.240Z,100362.69
2022-12-26T12:27:20.203Z,100365.34
2022-12-26T12:28:24.496Z,100365.34
2022-12-26T12:29:44.717Z,100368.34
2022-12-26T12:31:10.293Z,100363.38
2022-12-26T12:32:21.991Z,100360.00
2022-12-26T12:33:28.812Z,100367.34
2022-12-26T12:34:42.785Z,100360.31
2022-12-26T12:35:53.492Z,100372.69
2022-12-26T12:37:25.325Z,100356.97
2022-12-26T12:38:57.009Z,100358.63
2022-12-26T12:40:22.185Z,100365.06
2022-12-26T12:41:54.935Z,100364.59
2022-12-26T12:43:01.374Z,100358.53
2022-12-26T12:44:30.267Z,100367.56
2022-12-26T12:45:35.369Z,100353.38
2022-12-26T12:47:11.209Z,100353.00
2022-12-26T12:48:40.309Z,100361.09
2022-12-26T12:49:58.909Z,100359.41
2022-12-26T12:51:12.383Z,100358.72
2022-12-26T12:52:46.733Z,100344.38
2022-12-26T12:54:10.216Z,100348.59
2022-12-26T12:55:20.981Z,100346.03
2022-12-26T12:56:52.197Z,100347.84
2022-12-26T12:58:23.391Z,100342.31
2022-12-26T12:59:47.096Z,100341.38
2022-12-26T13:01:13.837Z,100351.09
2022-12-26T13:02:32.916Z,100353.91
2022-12-26T13:03:45.468Z,100358.72
2022-12-26T13:04:53.916Z,100341.75
2022-12-26T13:06:04.048Z,100355.50
2022-12-26T13:07:17.530Z,100347.78
2022-12-26T13:08:24.447Z,100353.00
2022-12-26T13:09:35.112Z,100347.66
2022-12-26T13:10:46.424Z,100348.09
2022-12-26T13:12:10.389Z,100347.47
2022-12-26T13:13:27.849Z,100336.97
2022-12-26T13:14:41.328Z,100352.53
2022-12-26T13:15:47.036Z,100343.59
2022-12-26T13:16:55.924Z,100354.66
2022-12-26T13:18:13.199Z,100357.34
2022-12-26T13:19:27.588Z,100337.97
2022-12-26T13:20:40.903Z,100352.53